sensor_id;sensor_type;location;lat;lon;timestamp;temperature;humidity
12602;DHT22;30282;16.436;99.370;2023-03-23T00:02:03;24.10;99.90
12602;DHT22;30282;16.436;99.370;2023-03-23T00:04:32;24.10;99.90
12602;DHT22;30282;16.436;99.370;2023-03-23T00:07:02;24.10;99.90
12602;DHT22;30282;16.436;99.370;2023-03-23T00:09:31;24.00;99.90
12602;DHT22;30282;16.436;99.370;2023-03-23T00:12:01;24.00;99.90
12602;DHT22;30282;16.436;99.370;2023-03-23T00:14:38;23.90;99.90
12602;DHT22;30282;16.436;99.370;2023-03-23T00:17:22;24.00;99.90
12602;DHT22;30282;16.436;99.370;2023-03-23T00:19:52;24.10;99.90
12602;DHT22;30282;16.436;99.370;2023-03-23T00:22:21;24.20;99.90
12602;DHT22;30282;16.436;99.370;2023-03-23T00:24:51;24.30;99.90
12602;DHT22;30282;16.436;99.370;2023-03-23T00:27:21;24.50;99.90
12602;DHT22;30282;16.436;99.370;2023-03-23T00:29:51;24.60;99.90
12602;DHT22;30282;16.436;99.370;2023-03-23T00:32:23;24.70;99.90
12602;DHT22;30282;16.436;99.370;2023-03-23T00:34:57;24.80;99.90
12602;DHT22;30282;16.436;99.370;2023-03-23T00:37:27;24.90;99.90
12602;DHT22;30282;16.436;99.370;2023-03-23T00:39:56;24.90;99.90
12602;DHT22;30282;16.436;99.370;2023-03-23T00:42:27;25.00;99.90
12602;DHT22;30282;16.436;99.370;2023-03-23T00:44:56;25.10;99.90
12602;DHT22;30282;16.436;99.370;2023-03-23T00:47:28;25.10;99.90
12602;DHT22;30282;16.436;99.370;2023-03-23T00:49:57;25.20;99.90
12602;DHT22;30282;16.436;99.370;2023-03-23T00:52:26;25.30;99.90
12602;DHT22;30282;16.436;99.370;2023-03-23T00:54:55;25.30;99.90
12602;DHT22;30282;16.436;99.370;2023-03-23T00:57:25;25.30;99.90
12602;DHT22;30282;16.436;99.370;2023-03-23T00:59:57;25.30;99.90
12602;DHT22;30282;16.436;99.370;2023-03-23T01:02:27;25.30;99.90
12602;DHT22;30282;16.436;99.370;2023-03-23T01:04:56;25.40;99.90
12602;DHT22;30282;16.436;99.370;2023-03-23T01:07:26;25.50;99.90
12602;DHT22;30282;16.436;99.370;2023-03-23T01:09:57;25.50;99.90
12602;DHT22;30282;16.436;99.370;2023-03-23T01:12:28;25.60;99.90
12602;DHT22;30282;16.436;99.370;2023-03-23T01:14:57;25.60;99.90
12602;DHT22;30282;16.436;99.370;2023-03-23T01:17:28;25.70;99.90
12602;DHT22;30282;16.436;99.370;2023-03-23T01:19:59;25.80;99.90
12602;DHT22;30282;16.436;99.370;2023-03-23T01:22:33;25.90;99.90
12602;DHT22;30282;16.436;99.370;2023-03-23T01:25:05;26.00;99.90
12602;DHT22;30282;16.436;99.370;2023-03-23T01:27:34;26.20;99.90
12602;DHT22;30282;16.436;99.370;2023-03-23T01:30:04;26.40;99.90
12602;DHT22;30282;16.436;99.370;2023-03-23T01:32:36;26.50;99.90
12602;DHT22;30282;16.436;99.370;2023-03-23T01:35:05;26.60;99.90
12602;DHT22;30282;16.436;99.370;2023-03-23T01:37:36;26.80;99.90
12602;DHT22;30282;16.436;99.370;2023-03-23T01:40:06;26.90;99.90
12602;DHT22;30282;16.436;99.370;2023-03-23T01:42:37;27.10;99.90
12602;DHT22;30282;16.436;99.370;2023-03-23T01:45:28;27.20;99.90
12602;DHT22;30282;16.436;99.370;2023-03-23T01:48:09;27.40;99.90
12602;DHT22;30282;16.436;99.370;2023-03-23T01:50:47;27.50;99.90
12602;DHT22;30282;16.436;99.370;2023-03-23T01:53:18;27.70;99.90
12602;DHT22;30282;16.436;99.370;2023-03-23T01:55:48;27.90;99.90
12602;DHT22;30282;16.436;99.370;2023-03-23T01:58:21;28.00;99.90
12602;DHT22;30282;16.436;99.370;2023-03-23T02:00:53;28.10;99.90
12602;DHT22;30282;16.436;99.370;2023-03-23T02:03:24;28.30;99.90
12602;DHT22;30282;16.436;99.370;2023-03-23T02:05:54;28.40;99.90
12602;DHT22;30282;16.436;99.370;2023-03-23T02:08:27;28.60;99.90
12602;DHT22;30282;16.436;99.370;2023-03-23T02:11:14;28.70;99.90
12602;DHT22;30282;16.436;99.370;2023-03-23T02:13:44;28.80;99.90
12602;DHT22;30282;16.436;99.370;2023-03-23T02:16:21;28.90;99.90
12602;DHT22;30282;16.436;99.370;2023-03-23T02:18:59;29.10;99.90
12602;DHT22;30282;16.436;99.370;2023-03-23T02:25:11;29.30;99.90
12602;DHT22;30282;16.436;99.370;2023-03-23T02:28:05;29.50;99.90
12602;DHT22;30282;16.436;99.370;2023-03-23T02:30:51;29.60;99.90
12602;DHT22;30282;16.436;99.370;2023-03-23T02:33:40;29.80;99.90
12602;DHT22;30282;16.436;99.370;2023-03-23T02:36:19;30.00;99.90
12602;DHT22;30282;16.436;99.370;2023-03-23T02:38:57;30.00;99.90
12602;DHT22;30282;16.436;99.370;2023-03-23T02:41:31;30.20;99.90
12602;DHT22;30282;16.436;99.370;2023-03-23T02:44:04;30.30;99.90
12602;DHT22;30282;16.436;99.370;2023-03-23T02:46:35;30.40;99.90
12602;DHT22;30282;16.436;99.370;2023-03-23T02:49:08;30.50;99.90
12602;DHT22;30282;16.436;99.370;2023-03-23T02:51:43;30.60;99.90
12602;DHT22;30282;16.436;99.370;2023-03-23T02:54:16;30.60;99.90
12602;DHT22;30282;16.436;99.370;2023-03-23T02:56:47;30.70;99.90
12602;DHT22;30282;16.436;99.370;2023-03-23T02:59:17;30.80;99.90
12602;DHT22;30282;16.436;99.370;2023-03-23T03:01:58;30.90;99.90
12602;DHT22;30282;16.436;99.370;2023-03-23T03:04:31;31.10;99.90
12602;DHT22;30282;16.436;99.370;2023-03-23T03:10:15;31.30;99.90
12602;DHT22;30282;16.436;99.370;2023-03-23T03:12:53;31.50;99.90
12602;DHT22;30282;16.436;99.370;2023-03-23T03:15:27;31.60;99.90
12602;DHT22;30282;16.436;99.370;2023-03-23T03:18:03;31.60;99.90
12602;DHT22;30282;16.436;99.370;2023-03-23T03:20:40;31.70;99.90
12602;DHT22;30282;16.436;99.370;2023-03-23T03:23:11;31.80;99.90
12602;DHT22;30282;16.436;99.370;2023-03-23T03:25:42;31.80;99.90
12602;DHT22;30282;16.436;99.370;2023-03-23T03:28:16;31.90;99.90
12602;DHT22;30282;16.436;99.370;2023-03-23T03:30:51;32.00;99.90
12602;DHT22;30282;16.436;99.370;2023-03-23T03:33:23;32.10;99.90
12602;DHT22;30282;16.436;99.370;2023-03-23T03:35:56;32.20;99.90
12602;DHT22;30282;16.436;99.370;2023-03-23T03:38:26;32.30;99.90
12602;DHT22;30282;16.436;99.370;2023-03-23T03:40:55;32.40;99.90
12602;DHT22;30282;16.436;99.370;2023-03-23T03:43:25;32.50;99.90
12602;DHT22;30282;16.436;99.370;2023-03-23T03:45:54;32.60;99.90
12602;DHT22;30282;16.436;99.370;2023-03-23T03:48:27;32.70;99.90
12602;DHT22;30282;16.436;99.370;2023-03-23T03:50:57;32.80;99.90
12602;DHT22;30282;16.436;99.370;2023-03-23T03:53:27;32.80;99.90
12602;DHT22;30282;16.436;99.370;2023-03-23T03:55:57;32.90;99.90
12602;DHT22;30282;16.436;99.370;2023-03-23T03:58:26;33.10;99.90
12602;DHT22;30282;16.436;99.370;2023-03-23T04:00:59;33.10;99.90
12602;DHT22;30282;16.436;99.370;2023-03-23T04:03:28;33.30;99.90
12602;DHT22;30282;16.436;99.370;2023-03-23T04:05:59;33.50;99.90
12602;DHT22;30282;16.436;99.370;2023-03-23T04:08:28;33.50;99.90
12602;DHT22;30282;16.436;99.370;2023-03-23T04:10:57;33.60;99.90
12602;DHT22;30282;16.436;99.370;2023-03-23T04:13:26;33.70;99.90
12602;DHT22;30282;16.436;99.370;2023-03-23T04:15:55;33.70;99.90
12602;DHT22;30282;16.436;99.370;2023-03-23T04:18:24;33.80;99.90
12602;DHT22;30282;16.436;99.370;2023-03-23T04:20:54;33.90;99.90
12602;DHT22;30282;16.436;99.370;2023-03-23T04:23:28;34.00;99.90
12602;DHT22;30282;16.436;99.370;2023-03-23T04:26:00;34.00;99.90
12602;DHT22;30282;16.436;99.370;2023-03-23T04:28:30;34.00;99.90
12602;DHT22;30282;16.436;99.370;2023-03-23T04:31:00;34.20;99.90
12602;DHT22;30282;16.436;99.370;2023-03-23T04:33:30;34.30;99.90
12602;DHT22;30282;16.436;99.370;2023-03-23T04:36:01;34.40;99.90
12602;DHT22;30282;16.436;99.370;2023-03-23T04:38:32;34.50;99.90
12602;DHT22;30282;16.436;99.370;2023-03-23T04:41:01;34.60;99.90
12602;DHT22;30282;16.436;99.370;2023-03-23T04:43:30;34.70;99.90
12602;DHT22;30282;16.436;99.370;2023-03-23T04:46:08;34.70;99.90
12602;DHT22;30282;16.436;99.370;2023-03-23T04:48:37;34.80;99.90
12602;DHT22;30282;16.436;99.370;2023-03-23T04:51:06;34.90;99.90
12602;DHT22;30282;16.436;99.370;2023-03-23T04:53:37;35.00;99.90
12602;DHT22;30282;16.436;99.370;2023-03-23T04:56:07;35.10;99.90
12602;DHT22;30282;16.436;99.370;2023-03-23T04:58:36;35.30;99.90
12602;DHT22;30282;16.436;99.370;2023-03-23T05:01:06;35.30;99.90
12602;DHT22;30282;16.436;99.370;2023-03-23T05:03:35;35.40;99.90
12602;DHT22;30282;16.436;99.370;2023-03-23T05:06:06;35.50;99.90
12602;DHT22;30282;16.436;99.370;2023-03-23T05:08:37;35.60;99.90
12602;DHT22;30282;16.436;99.370;2023-03-23T05:11:06;35.60;99.90
12602;DHT22;30282;16.436;99.370;2023-03-23T05:13:36;35.70;99.90
12602;DHT22;30282;16.436;99.370;2023-03-23T05:16:06;35.70;99.90
12602;DHT22;30282;16.436;99.370;2023-03-23T05:18:35;35.80;99.90
12602;DHT22;30282;16.436;99.370;2023-03-23T05:21:05;35.90;99.90
12602;DHT22;30282;16.436;99.370;2023-03-23T05:23:34;35.90;99.90
12602;DHT22;30282;16.436;99.370;2023-03-23T05:26:05;35.90;99.90
12602;DHT22;30282;16.436;99.370;2023-03-23T05:28:34;35.90;99.90
12602;DHT22;30282;16.436;99.370;2023-03-23T05:31:03;36.00;99.90
12602;DHT22;30282;16.436;99.370;2023-03-23T05:33:32;36.10;99.90
12602;DHT22;30282;16.436;99.370;2023-03-23T05:36:01;36.10;99.90
12602;DHT22;30282;16.436;99.370;2023-03-23T05:38:31;36.20;99.90
12602;DHT22;30282;16.436;99.370;2023-03-23T05:41:00;36.40;99.90
12602;DHT22;30282;16.436;99.370;2023-03-23T05:43:31;36.50;99.90
12602;DHT22;30282;16.436;99.370;2023-03-23T05:46:00;36.50;99.90
12602;DHT22;30282;16.436;99.370;2023-03-23T05:48:30;36.50;99.90
12602;DHT22;30282;16.436;99.370;2023-03-23T05:50:59;36.50;99.90
12602;DHT22;30282;16.436;99.370;2023-03-23T05:53:29;36.70;99.90
12602;DHT22;30282;16.436;99.370;2023-03-23T05:55:59;36.70;99.90
12602;DHT22;30282;16.436;99.370;2023-03-23T05:58:30;36.70;99.90
12602;DHT22;30282;16.436;99.370;2023-03-23T06:00:59;36.80;99.90
12602;DHT22;30282;16.436;99.370;2023-03-23T06:03:29;36.80;99.90
12602;DHT22;30282;16.436;99.370;2023-03-23T06:05:58;36.90;99.90
12602;DHT22;30282;16.436;99.370;2023-03-23T06:08:27;36.90;99.90
12602;DHT22;30282;16.436;99.370;2023-03-23T06:10:56;36.90;99.90
12602;DHT22;30282;16.436;99.370;2023-03-23T06:13:25;37.00;99.90
12602;DHT22;30282;16.436;99.370;2023-03-23T06:15:57;37.20;99.90
12602;DHT22;30282;16.436;99.370;2023-03-23T06:18:27;37.20;99.90
12602;DHT22;30282;16.436;99.370;2023-03-23T06:20:56;37.10;99.90
12602;DHT22;30282;16.436;99.370;2023-03-23T06:23:25;37.10;99.90
12602;DHT22;30282;16.436;99.370;2023-03-23T06:25:57;37.00;99.90
12602;DHT22;30282;16.436;99.370;2023-03-23T06:28:26;37.10;99.90
12602;DHT22;30282;16.436;99.370;2023-03-23T06:30:59;37.10;99.90
12602;DHT22;30282;16.436;99.370;2023-03-23T06:33:28;37.00;99.90
12602;DHT22;30282;16.436;99.370;2023-03-23T06:35:58;37.10;99.90
12602;DHT22;30282;16.436;99.370;2023-03-23T06:38:27;37.20;99.90
12602;DHT22;30282;16.436;99.370;2023-03-23T06:40:56;37.20;99.90
12602;DHT22;30282;16.436;99.370;2023-03-23T06:43:25;37.20;99.90
12602;DHT22;30282;16.436;99.370;2023-03-23T06:45:57;37.20;99.90
12602;DHT22;30282;16.436;99.370;2023-03-23T06:48:27;37.10;99.90
12602;DHT22;30282;16.436;99.370;2023-03-23T06:50:56;37.10;99.90
12602;DHT22;30282;16.436;99.370;2023-03-23T06:53:25;37.10;99.90
12602;DHT22;30282;16.436;99.370;2023-03-23T06:55:54;37.20;99.90
12602;DHT22;30282;16.436;99.370;2023-03-23T06:58:23;37.20;99.90
12602;DHT22;30282;16.436;99.370;2023-03-23T07:00:56;37.20;99.60
12602;DHT22;30282;16.436;99.370;2023-03-23T07:03:26;37.20;99.90
12602;DHT22;30282;16.436;99.370;2023-03-23T07:05:55;37.20;99.90
12602;DHT22;30282;16.436;99.370;2023-03-23T07:08:24;37.20;99.90
12602;DHT22;30282;16.436;99.370;2023-03-23T07:10:54;37.30;99.90
12602;DHT22;30282;16.436;99.370;2023-03-23T07:13:24;37.30;99.90
12602;DHT22;30282;16.436;99.370;2023-03-23T07:15:53;37.40;99.90
12602;DHT22;30282;16.436;99.370;2023-03-23T07:18:24;37.40;99.90
12602;DHT22;30282;16.436;99.370;2023-03-23T07:20:54;37.40;99.90
12602;DHT22;30282;16.436;99.370;2023-03-23T07:23:23;37.50;99.90
12602;DHT22;30282;16.436;99.370;2023-03-23T07:25:52;37.40;99.90
12602;DHT22;30282;16.436;99.370;2023-03-23T07:28:22;37.40;99.90
12602;DHT22;30282;16.436;99.370;2023-03-23T07:30:51;37.40;99.90
12602;DHT22;30282;16.436;99.370;2023-03-23T07:33:21;37.40;99.90
12602;DHT22;30282;16.436;99.370;2023-03-23T07:35:51;37.50;99.90
12602;DHT22;30282;16.436;99.370;2023-03-23T07:38:20;37.50;99.90
12602;DHT22;30282;16.436;99.370;2023-03-23T07:40:52;37.40;99.90
12602;DHT22;30282;16.436;99.370;2023-03-23T07:43:21;37.40;99.90
12602;DHT22;30282;16.436;99.370;2023-03-23T07:45:50;37.40;99.90
12602;DHT22;30282;16.436;99.370;2023-03-23T07:48:19;37.40;99.90
12602;DHT22;30282;16.436;99.370;2023-03-23T07:50:48;37.40;99.90
12602;DHT22;30282;16.436;99.370;2023-03-23T07:53:19;37.30;99.90
12602;DHT22;30282;16.436;99.370;2023-03-23T07:55:48;37.20;99.90
12602;DHT22;30282;16.436;99.370;2023-03-23T07:58:20;37.30;99.90
12602;DHT22;30282;16.436;99.370;2023-03-23T08:00:49;37.30;99.90
12602;DHT22;30282;16.436;99.370;2023-03-23T08:03:20;37.30;99.90
12602;DHT22;30282;16.436;99.370;2023-03-23T08:05:49;37.10;99.90
12602;DHT22;30282;16.436;99.370;2023-03-23T08:08:20;37.00;99.90
12602;DHT22;30282;16.436;99.370;2023-03-23T08:10:50;36.90;99.90
12602;DHT22;30282;16.436;99.370;2023-03-23T08:13:19;36.80;99.90
12602;DHT22;30282;16.436;99.370;2023-03-23T08:15:48;36.60;99.90
12602;DHT22;30282;16.436;99.370;2023-03-23T08:18:18;36.50;99.90
12602;DHT22;30282;16.436;99.370;2023-03-23T08:20:47;36.60;99.90
12602;DHT22;30282;16.436;99.370;2023-03-23T08:23:16;36.60;99.90
12602;DHT22;30282;16.436;99.370;2023-03-23T08:25:47;36.70;99.90
12602;DHT22;30282;16.436;99.370;2023-03-23T08:28:26;36.80;99.90
12602;DHT22;30282;16.436;99.370;2023-03-23T08:30:55;36.80;99.90
12602;DHT22;30282;16.436;99.370;2023-03-23T08:33:26;36.80;99.90
12602;DHT22;30282;16.436;99.370;2023-03-23T08:36:00;36.70;99.90
12602;DHT22;30282;16.436;99.370;2023-03-23T08:38:29;36.60;99.90
12602;DHT22;30282;16.436;99.370;2023-03-23T08:41:01;36.60;99.90
12602;DHT22;30282;16.436;99.370;2023-03-23T08:43:31;36.70;99.90
12602;DHT22;30282;16.436;99.370;2023-03-23T08:46:01;36.70;99.90
12602;DHT22;30282;16.436;99.370;2023-03-23T08:48:35;36.80;99.90
12602;DHT22;30282;16.436;99.370;2023-03-23T08:51:06;36.90;99.90
12602;DHT22;30282;16.436;99.370;2023-03-23T08:53:35;36.90;99.90
12602;DHT22;30282;16.436;99.370;2023-03-23T08:56:07;36.90;99.90
12602;DHT22;30282;16.436;99.370;2023-03-23T08:58:37;36.90;99.90
12602;DHT22;30282;16.436;99.370;2023-03-23T09:01:07;36.90;99.90
12602;DHT22;30282;16.436;99.370;2023-03-23T09:03:37;36.90;99.90
12602;DHT22;30282;16.436;99.370;2023-03-23T09:06:08;36.90;99.90
12602;DHT22;30282;16.436;99.370;2023-03-23T09:08:39;36.90;99.90
12602;DHT22;30282;16.436;99.370;2023-03-23T09:11:10;36.90;99.90
12602;DHT22;30282;16.436;99.370;2023-03-23T09:13:40;36.90;99.90
12602;DHT22;30282;16.436;99.370;2023-03-23T09:16:09;36.80;99.90
12602;DHT22;30282;16.436;99.370;2023-03-23T09:18:38;36.70;99.90
12602;DHT22;30282;16.436;99.370;2023-03-23T09:21:08;36.70;99.90
12602;DHT22;30282;16.436;99.370;2023-03-23T09:23:37;36.60;99.90
12602;DHT22;30282;16.436;99.370;2023-03-23T09:26:10;36.60;99.90
12602;DHT22;30282;16.436;99.370;2023-03-23T09:28:39;36.60;99.90
12602;DHT22;30282;16.436;99.370;2023-03-23T09:31:11;36.50;99.90
12602;DHT22;30282;16.436;99.370;2023-03-23T09:33:40;36.50;99.90
12602;DHT22;30282;16.436;99.370;2023-03-23T09:36:11;36.50;99.90
12602;DHT22;30282;16.436;99.370;2023-03-23T09:38:41;36.40;99.90
12602;DHT22;30282;16.436;99.370;2023-03-23T09:41:27;36.40;99.90
12602;DHT22;30282;16.436;99.370;2023-03-23T09:44:05;36.40;99.90
12602;DHT22;30282;16.436;99.370;2023-03-23T09:46:48;36.40;99.90
12602;DHT22;30282;16.436;99.370;2023-03-23T09:49:21;36.40;99.90
12602;DHT22;30282;16.436;99.370;2023-03-23T09:51:54;36.30;99.90
12602;DHT22;30282;16.436;99.370;2023-03-23T09:54:26;36.30;99.90
12602;DHT22;30282;16.436;99.370;2023-03-23T09:56:59;36.30;99.90
12602;DHT22;30282;16.436;99.370;2023-03-23T09:59:34;36.30;99.90
12602;DHT22;30282;16.436;99.370;2023-03-23T10:02:18;36.30;99.90
12602;DHT22;30282;16.436;99.370;2023-03-23T10:04:50;36.30;99.90
12602;DHT22;30282;16.436;99.370;2023-03-23T10:07:21;36.30;99.90
12602;DHT22;30282;16.436;99.370;2023-03-23T10:09:54;36.30;99.90
12602;DHT22;30282;16.436;99.370;2023-03-23T10:12:34;36.30;99.90
12602;DHT22;30282;16.436;99.370;2023-03-23T10:15:16;36.30;99.90
12602;DHT22;30282;16.436;99.370;2023-03-23T10:17:52;36.30;99.90
12602;DHT22;30282;16.436;99.370;2023-03-23T10:20:42;36.20;99.90
12602;DHT22;30282;16.436;99.370;2023-03-23T10:23:38;36.20;99.90
12602;DHT22;30282;16.436;99.370;2023-03-23T10:26:13;36.20;99.90
12602;DHT22;30282;16.436;99.370;2023-03-23T10:28:50;36.20;99.90
12602;DHT22;30282;16.436;99.370;2023-03-23T10:31:24;36.10;99.90
12602;DHT22;30282;16.436;99.370;2023-03-23T10:33:59;36.10;99.90
12602;DHT22;30282;16.436;99.370;2023-03-23T10:36:34;36.00;99.90
12602;DHT22;30282;16.436;99.370;2023-03-23T10:39:10;36.00;99.90
12602;DHT22;30282;16.436;99.370;2023-03-23T10:41:39;36.00;99.90
12602;DHT22;30282;16.436;99.370;2023-03-23T10:44:15;36.00;99.90
12602;DHT22;30282;16.436;99.370;2023-03-23T10:46:47;36.00;99.90
12602;DHT22;30282;16.436;99.370;2023-03-23T10:49:24;36.00;99.90
12602;DHT22;30282;16.436;99.370;2023-03-23T10:52:02;35.90;99.90
12602;DHT22;30282;16.436;99.370;2023-03-23T10:54:36;35.90;99.90
12602;DHT22;30282;16.436;99.370;2023-03-23T10:57:22;35.80;99.90
12602;DHT22;30282;16.436;99.370;2023-03-23T11:00:05;35.80;99.90
12602;DHT22;30282;16.436;99.370;2023-03-23T11:02:39;35.70;99.90
12602;DHT22;30282;16.436;99.370;2023-03-23T11:05:17;35.70;99.90
12602;DHT22;30282;16.436;99.370;2023-03-23T11:07:53;35.60;99.90
12602;DHT22;30282;16.436;99.370;2023-03-23T11:10:25;35.60;99.90
12602;DHT22;30282;16.436;99.370;2023-03-23T11:12:58;35.60;99.90
12602;DHT22;30282;16.436;99.370;2023-03-23T11:15:31;35.50;99.90
12602;DHT22;30282;16.436;99.370;2023-03-23T11:18:03;35.40;99.90
12602;DHT22;30282;16.436;99.370;2023-03-23T11:20:36;35.40;99.90
12602;DHT22;30282;16.436;99.370;2023-03-23T11:23:15;35.30;99.90
12602;DHT22;30282;16.436;99.370;2023-03-23T11:26:09;35.20;99.90
12602;DHT22;30282;16.436;99.370;2023-03-23T11:28:43;35.10;99.90
12602;DHT22;30282;16.436;99.370;2023-03-23T11:31:17;35.00;99.90
12602;DHT22;30282;16.436;99.370;2023-03-23T11:33:54;35.00;99.90
12602;DHT22;30282;16.436;99.370;2023-03-23T11:36:31;34.90;99.90
12602;DHT22;30282;16.436;99.370;2023-03-23T11:39:01;34.80;99.90
12602;DHT22;30282;16.436;99.370;2023-03-23T11:41:35;34.70;99.90
12602;DHT22;30282;16.436;99.370;2023-03-23T11:44:10;34.70;99.90
12602;DHT22;30282;16.436;99.370;2023-03-23T11:46:49;34.70;99.90
12602;DHT22;30282;16.436;99.370;2023-03-23T11:49:28;34.70;99.90
12602;DHT22;30282;16.436;99.370;2023-03-23T11:52:02;34.60;99.90
12602;DHT22;30282;16.436;99.370;2023-03-23T11:54:36;34.60;99.90
12602;DHT22;30282;16.436;99.370;2023-03-23T11:57:10;34.50;99.90
12602;DHT22;30282;16.436;99.370;2023-03-23T11:59:40;34.50;99.90
12602;DHT22;30282;16.436;99.370;2023-03-23T12:02:32;34.40;99.90
12602;DHT22;30282;16.436;99.370;2023-03-23T12:05:31;34.40;99.90
12602;DHT22;30282;16.436;99.370;2023-03-23T12:08:17;34.30;99.90
12602;DHT22;30282;16.436;99.370;2023-03-23T12:10:56;34.30;99.90
12602;DHT22;30282;16.436;99.370;2023-03-23T12:13:50;34.30;99.90
12602;DHT22;30282;16.436;99.370;2023-03-23T12:16:31;34.40;99.90
12602;DHT22;30282;16.436;99.370;2023-03-23T12:19:10;34.40;99.90
12602;DHT22;30282;16.436;99.370;2023-03-23T12:21:50;34.10;99.90
12602;DHT22;30282;16.436;99.370;2023-03-23T12:24:30;34.20;99.90
12602;DHT22;30282;16.436;99.370;2023-03-23T12:27:08;34.10;99.90
12602;DHT22;30282;16.436;99.370;2023-03-23T12:29:57;34.10;99.90
12602;DHT22;30282;16.436;99.370;2023-03-23T12:32:47;34.10;99.90
12602;DHT22;30282;16.436;99.370;2023-03-23T12:35:46;34.10;99.90
12602;DHT22;30282;16.436;99.370;2023-03-23T12:38:39;34.10;99.90
12602;DHT22;30282;16.436;99.370;2023-03-23T12:41:17;34.00;99.90
12602;DHT22;30282;16.436;99.370;2023-03-23T12:43:52;34.00;99.90
12602;DHT22;30282;16.436;99.370;2023-03-23T12:49:31;33.90;99.90
12602;DHT22;30282;16.436;99.370;2023-03-23T12:52:11;33.80;99.90
12602;DHT22;30282;16.436;99.370;2023-03-23T12:54:46;33.80;99.90
12602;DHT22;30282;16.436;99.370;2023-03-23T12:57:22;33.70;99.90
12602;DHT22;30282;16.436;99.370;2023-03-23T12:59:57;33.70;99.90
12602;DHT22;30282;16.436;99.370;2023-03-23T13:02:36;33.60;99.90
12602;DHT22;30282;16.436;99.370;2023-03-23T13:05:10;33.60;99.90
12602;DHT22;30282;16.436;99.370;2023-03-23T13:07:47;33.60;99.90
12602;DHT22;30282;16.436;99.370;2023-03-23T13:10:22;33.60;99.90
12602;DHT22;30282;16.436;99.370;2023-03-23T13:12:54;33.40;99.90
12602;DHT22;30282;16.436;99.370;2023-03-23T13:15:31;33.40;99.90
12602;DHT22;30282;16.436;99.370;2023-03-23T13:18:08;33.30;99.90
12602;DHT22;30282;16.436;99.370;2023-03-23T13:20:52;33.20;99.90
12602;DHT22;30282;16.436;99.370;2023-03-23T13:23:27;33.20;99.90
12602;DHT22;30282;16.436;99.370;2023-03-23T13:26:00;33.20;99.90
12602;DHT22;30282;16.436;99.370;2023-03-23T13:28:31;33.20;99.90
12602;DHT22;30282;16.436;99.370;2023-03-23T13:31:02;33.10;99.90
12602;DHT22;30282;16.436;99.370;2023-03-23T13:33:33;33.00;99.90
12602;DHT22;30282;16.436;99.370;2023-03-23T13:36:10;32.90;99.90
12602;DHT22;30282;16.436;99.370;2023-03-23T13:38:46;32.80;99.90
12602;DHT22;30282;16.436;99.370;2023-03-23T13:41:18;32.60;99.90
12602;DHT22;30282;16.436;99.370;2023-03-23T13:43:49;32.50;99.90
12602;DHT22;30282;16.436;99.370;2023-03-23T13:46:29;32.40;99.90
12602;DHT22;30282;16.436;99.370;2023-03-23T13:49:19;32.30;99.90
12602;DHT22;30282;16.436;99.370;2023-03-23T13:54:51;32.20;99.90
12602;DHT22;30282;16.436;99.370;2023-03-23T13:57:48;32.10;99.90
12602;DHT22;30282;16.436;99.370;2023-03-23T14:01:10;31.90;99.90
12602;DHT22;30282;16.436;99.370;2023-03-23T14:04:06;31.90;99.90
12602;DHT22;30282;16.436;99.370;2023-03-23T14:06:36;31.90;99.90
12602;DHT22;30282;16.436;99.370;2023-03-23T14:09:14;31.90;99.90
12602;DHT22;30282;16.436;99.370;2023-03-23T14:11:54;31.80;99.90
12602;DHT22;30282;16.436;99.370;2023-03-23T14:14:27;31.80;99.90
12602;DHT22;30282;16.436;99.370;2023-03-23T14:17:07;31.80;99.90
12602;DHT22;30282;16.436;99.370;2023-03-23T14:19:41;31.80;99.90
12602;DHT22;30282;16.436;99.370;2023-03-23T14:22:22;31.80;99.90
12602;DHT22;30282;16.436;99.370;2023-03-23T14:24:52;31.80;99.90
12602;DHT22;30282;16.436;99.370;2023-03-23T14:27:30;31.70;99.90
12602;DHT22;30282;16.436;99.370;2023-03-23T14:30:24;31.80;99.90
12602;DHT22;30282;16.436;99.370;2023-03-23T14:33:10;31.80;99.90
12602;DHT22;30282;16.436;99.370;2023-03-23T14:35:44;31.80;99.90
12602;DHT22;30282;16.436;99.370;2023-03-23T14:38:27;31.80;99.90
12602;DHT22;30282;16.436;99.370;2023-03-23T14:41:02;31.70;99.90
12602;DHT22;30282;16.436;99.370;2023-03-23T14:43:45;31.70;99.90
12602;DHT22;30282;16.436;99.370;2023-03-23T14:52:35;31.80;99.90
12602;DHT22;30282;16.436;99.370;2023-03-23T14:55:20;31.90;99.90
12602;DHT22;30282;16.436;99.370;2023-03-23T14:58:07;31.80;99.90
12602;DHT22;30282;16.436;99.370;2023-03-23T15:00:47;31.90;99.90
12602;DHT22;30282;16.436;99.370;2023-03-23T15:03:31;31.90;99.90
12602;DHT22;30282;16.436;99.370;2023-03-23T15:06:05;31.90;99.90
12602;DHT22;30282;16.436;99.370;2023-03-23T15:08:45;31.80;99.90
12602;DHT22;30282;16.436;99.370;2023-03-23T15:11:24;31.70;99.90
12602;DHT22;30282;16.436;99.370;2023-03-23T15:13:56;31.70;99.90
12602;DHT22;30282;16.436;99.370;2023-03-23T15:16:35;31.70;99.90
12602;DHT22;30282;16.436;99.370;2023-03-23T15:19:13;31.70;99.90
12602;DHT22;30282;16.436;99.370;2023-03-23T15:21:49;31.60;99.90
12602;DHT22;30282;16.436;99.370;2023-03-23T15:24:26;31.70;99.90
12602;DHT22;30282;16.436;99.370;2023-03-23T15:27:09;31.70;99.90
12602;DHT22;30282;16.436;99.370;2023-03-23T15:29:51;31.70;99.90
12602;DHT22;30282;16.436;99.370;2023-03-23T15:32:27;31.60;99.90
12602;DHT22;30282;16.436;99.370;2023-03-23T15:34:58;31.60;99.90
12602;DHT22;30282;16.436;99.370;2023-03-23T15:37:32;31.70;99.90
12602;DHT22;30282;16.436;99.370;2023-03-23T15:40:04;31.80;99.90
12602;DHT22;30282;16.436;99.370;2023-03-23T15:42:34;31.90;99.90
12602;DHT22;30282;16.436;99.370;2023-03-23T15:45:23;31.80;99.90
12602;DHT22;30282;16.436;99.370;2023-03-23T15:48:04;31.80;99.90
12602;DHT22;30282;16.436;99.370;2023-03-23T15:50:34;31.60;99.90
12602;DHT22;30282;16.436;99.370;2023-03-23T15:53:19;31.40;99.90
12602;DHT22;30282;16.436;99.370;2023-03-23T15:55:51;31.30;99.90
12602;DHT22;30282;16.436;99.370;2023-03-23T15:58:20;31.10;99.90
12602;DHT22;30282;16.436;99.370;2023-03-23T16:00:51;30.80;99.90
12602;DHT22;30282;16.436;99.370;2023-03-23T16:03:24;30.70;99.90
12602;DHT22;30282;16.436;99.370;2023-03-23T16:05:54;30.60;99.90
12602;DHT22;30282;16.436;99.370;2023-03-23T16:08:25;30.60;99.90
12602;DHT22;30282;16.436;99.370;2023-03-23T16:10:55;30.60;99.90
12602;DHT22;30282;16.436;99.370;2023-03-23T16:13:24;30.50;99.90
12602;DHT22;30282;16.436;99.370;2023-03-23T16:15:53;30.50;99.90